Etusivu
METAR-TAF:

METAR-TAF

Lentoasemat :

Elim, Alaska, Yhdysvallat

Leveyspiiri: 64-36-54N, Pituuspiiri: 162-16-14W, korkeus merenpinnasta: 49 m

Tämänhetkinen sää

Tämä raportti tehtiin 1 tunti ja 9 minuuttia sitten, kello 14.56 UTC
Tuuli 9 kn pohjoisen/luoteesta
Lämpötila 6°C
Kosteus 75%
Ilmanpaine 1007 hPa
Näkyvyys: 16.1 km
Muutamia pilviä 8000 ft:n korkeudessa

METAR: PFEL 241456Z AUTO 34009KT 10SM FEW080 06/02 A2973 RMK AO2 SLP069 T00560017 58013

Aika: 08:05 (16:05 UTC)


TAF: puuttuu

Säähavainnot ja -ennusteet yli 4000 lentoasemalta (METAR- ja TAF-raportit).

Käytössä olevat sääasemat on merkitty karttaan keltaisilla ja punaisilla pisteillä.

Aseta hiiri pisteen päälle nähdäksesi sääaseman nimen.

Klikkaa sitten nähdäksesi säähavainnot ja -ennusteet.

Kartan vaihtaminen: klikkaa mustalla rastilla varustettuja vihreitä pisteitä, niin voit zoomata sisään; viivalla varustettua vihreää pistettä, niin voit zoomata ulos tai vihreitä nuolia, niin pääset viereisille kartoille.


METAR-TAF: